地図

経路データ

SID SEASON NUMBER BASIN SUBBASIN NAME ISO_TIME NATURE LAT LON WMO_WIND WMO_PRES WMO_AGENCY TRACK_TYPE DIST2LAND LANDFALL IFLAG USA_AGENCY USA_ATCF_ID USA_LAT USA_LON USA_RECORD USA_STATUS USA_WIND USA_PRES USA_SSHS USA_R34_NE USA_R34_SE USA_R34_SW USA_R34_NW USA_R50_NE USA_R50_SE USA_R50_SW USA_R50_NW USA_R64_NE USA_R64_SE USA_R64_SW USA_R64_NW USA_POCI USA_ROCI USA_RMW USA_EYE TOKYO_LAT TOKYO_LON TOKYO_GRADE TOKYO_WIND TOKYO_PRES TOKYO_R50_DIR TOKYO_R50_LONG TOKYO_R50_SHORT TOKYO_R30_DIR TOKYO_R30_LONG TOKYO_R30_SHORT TOKYO_LAND CMA_LAT CMA_LON CMA_CAT CMA_WIND CMA_PRES HKO_LAT HKO_LON HKO_CAT HKO_WIND HKO_PRES NEWDELHI_LAT NEWDELHI_LON NEWDELHI_GRADE NEWDELHI_WIND NEWDELHI_PRES NEWDELHI_CI NEWDELHI_DP NEWDELHI_POCI REUNION_LAT REUNION_LON REUNION_TYPE REUNION_WIND REUNION_PRES REUNION_TNUM REUNION_CI REUNION_RMW REUNION_R34_NE REUNION_R34_SE REUNION_R34_SW REUNION_R34_NW REUNION_R50_NE REUNION_R50_SE REUNION_R50_SW REUNION_R50_NW REUNION_R64_NE REUNION_R64_SE REUNION_R64_SW REUNION_R64_NW BOM_LAT BOM_LON BOM_TYPE BOM_WIND BOM_PRES BOM_TNUM BOM_CI BOM_RMW BOM_R34_NE BOM_R34_SE BOM_R34_SW BOM_R34_NW BOM_R50_NE BOM_R50_SE BOM_R50_SW BOM_R50_NW BOM_R64_NE BOM_R64_SE BOM_R64_SW BOM_R64_NW BOM_ROCI BOM_POCI BOM_EYE BOM_POS_METHOD BOM_PRES_METHOD NADI_LAT NADI_LON NADI_CAT NADI_WIND NADI_PRES WELLINGTON_LAT WELLINGTON_LON WELLINGTON_WIND WELLINGTON_PRES DS824_LAT DS824_LON DS824_STAGE DS824_WIND DS824_PRES TD9636_LAT TD9636_LON TD9636_STAGE TD9636_WIND TD9636_PRES TD9635_LAT TD9635_LON TD9635_WIND TD9635_PRES TD9635_ROCI NEUMANN_LAT NEUMANN_LON NEUMANN_CLASS NEUMANN_WIND NEUMANN_PRES MLC_LAT MLC_LON MLC_CLASS MLC_WIND MLC_PRES USA_GUST BOM_GUST BOM_GUST_PER REUNION_GUST REUNION_GUST_PER USA_SEAHGT USA_SEARAD_NE USA_SEARAD_SE USA_SEARAD_SW USA_SEARAD_NW STORM_SPEED STORM_DIR
1968268N26286 1968 96 NA NA FRANCES 1968-09-23 12:00:00 TS 26.0000 -74.0000 25 hurdat_atl main 407 407 O_____________ hurdat_atl AL121968 26.0000 -74.0000 TD 25 -1 7 346
1968268N26286 1968 96 NA NA FRANCES 1968-09-23 15:00:00 TS 26.3625 -74.0949 main 415 415 P_____________ AL121968 26.3625 -74.0949 TD 25 -1 7 345
1968268N26286 1968 96 NA NA FRANCES 1968-09-23 18:00:00 TS 26.7000 -74.2000 25 hurdat_atl main 419 415 O_____________ hurdat_atl AL121968 26.7000 -74.2000 TD 25 -1 7 343
1968268N26286 1968 96 NA NA FRANCES 1968-09-23 21:00:00 TS 27.0000 -74.3150 main 425 422 P_____________ AL121968 27.0000 -74.3150 TD 25 -1 6 344
1968268N26286 1968 96 NA NA FRANCES 1968-09-24 00:00:00 TS 27.3000 -74.4000 25 hurdat_atl main 434 434 O_____________ hurdat_atl AL121968 27.3000 -74.4000 TD 25 -1 7 351
1968268N26286 1968 96 NA NA FRANCES 1968-09-24 03:00:00 TS 27.6425 -74.4226 main 454 454 P_____________ AL121968 27.6425 -74.4226 TD 25 -1 7 0
1968268N26286 1968 96 NA NA FRANCES 1968-09-24 06:00:00 TS 28.0000 -74.4000 25 hurdat_atl main 482 482 O_____________ hurdat_atl AL121968 28.0000 -74.4000 TD 25 -1 7 5
1968268N26286 1968 96 NA NA FRANCES 1968-09-24 09:00:00 TS 28.3500 -74.3650 main 505 505 P_____________ AL121968 28.3500 -74.3650 TD 27 -1 7 7
1968268N26286 1968 96 NA NA FRANCES 1968-09-24 12:00:00 TS 28.7000 -74.3000 30 hurdat_atl main 543 543 O_____________ hurdat_atl AL121968 28.7000 -74.3000 TD 30 -1 7 9
1968268N26286 1968 96 NA NA FRANCES 1968-09-24 15:00:00 TS 29.0498 -74.2446 main 575 575 P_____________ AL121968 29.0498 -74.2446 TD 30 -1 7 14
1968268N26286 1968 96 NA NA FRANCES 1968-09-24 18:00:00 TS 29.4000 -74.1000 30 1012 hurdat_atl main 615 607 O_____________ hurdat_atl AL121968 29.4000 -74.1000 TD 30 1012 -1 8 29
1968268N26286 1968 96 NA NA FRANCES 1968-09-24 21:00:00 TS 29.7501 -73.7951 main 602 589 P_____________ AL121968 29.7501 -73.7951 TD 30 -1 9 41
1968268N26286 1968 96 NA NA FRANCES 1968-09-25 00:00:00 TS 30.1000 -73.4000 30 hurdat_atl main 589 575 O_____________ hurdat_atl AL121968 30.1000 -73.4000 TD 30 -1 10 43
1968268N26286 1968 96 NA NA FRANCES 1968-09-25 03:00:00 TS 30.4649 -73.0149 main 571 564 P_____________ AL121968 30.4649 -73.0149 TD 30 -1 10 45
1968268N26286 1968 96 NA NA FRANCES 1968-09-25 06:00:00 TS 30.8000 -72.6000 30 hurdat_atl main 567 564 O_____________ hurdat_atl AL121968 30.8000 -72.6000 TD 30 -1 9 51
1968268N26286 1968 96 NA NA FRANCES 1968-09-25 09:00:00 TS 31.0573 -72.1645 main 567 567 P_____________ AL121968 31.0573 -72.1645 TD 30 -1 9 57
1968268N26286 1968 96 NA NA FRANCES 1968-09-25 12:00:00 TS 31.3000 -71.7000 30 1012 hurdat_atl main 585 585 O_____________ hurdat_atl AL121968 31.3000 -71.7000 TD 30 1012 -1 10 56
1968268N26286 1968 96 NA NA FRANCES 1968-09-25 15:00:00 TS 31.6076 -71.1927 main 599 599 P_____________ AL121968 31.6076 -71.1927 TD 30 -1 10 55
1968268N26286 1968 96 NA NA FRANCES 1968-09-25 18:00:00 TS 31.9000 -70.7000 30 hurdat_atl main 617 617 O_____________ hurdat_atl AL121968 31.9000 -70.7000 TD 30 -1 9 57
1968268N26286 1968 96 NA NA FRANCES 1968-09-25 21:00:00 TS 32.1148 -70.2771 main 631 631 P_____________ AL121968 32.1148 -70.2771 TD 30 -1 8 59
1968268N26286 1968 96 NA NA FRANCES 1968-09-26 00:00:00 TS 32.3000 -69.9000 30 hurdat_atl main 645 645 O_____________ hurdat_atl AL121968 32.3000 -69.9000 TD 30 -1 8 58
1968268N26286 1968 96 NA NA FRANCES 1968-09-26 03:00:00 TS 32.5150 -69.5201 main 662 662 P_____________ AL121968 32.5150 -69.5201 TD 30 -1 7 56
1968268N26286 1968 96 NA NA FRANCES 1968-09-26 06:00:00 TS 32.7000 -69.2000 30 hurdat_atl main 673 673 O_____________ hurdat_atl AL121968 32.7000 -69.2000 TD 30 -1 5 57
1968268N26286 1968 96 NA NA FRANCES 1968-09-26 09:00:00 TS 32.8073 -68.9921 main 683 683 P_____________ AL121968 32.8073 -68.9921 TD 30 -1 4 59
1968268N26286 1968 96 NA NA FRANCES 1968-09-26 12:00:00 TS 32.9000 -68.8000 30 hurdat_atl main 693 693 O_____________ hurdat_atl AL121968 32.9000 -68.8000 TD 30 -1 5 60
1968268N26286 1968 96 NA NA FRANCES 1968-09-26 15:00:00 TS 33.0426 -68.5076 main 712 707 P_____________ AL121968 33.0426 -68.5076 TD 37 0 6 59
1968268N26286 1968 96 NA NA FRANCES 1968-09-26 18:00:00 TS 33.2000 -68.2000 45 1003 hurdat_atl main 727 727 O_____________ hurdat_atl AL121968 33.2000 -68.2000 TS 45 1003 0 6 57
1968268N26286 1968 96 NA NA FRANCES 1968-09-26 21:00:00 TS 33.3499 -67.9498 main 748 743 P_____________ AL121968 33.3499 -67.9498 TS 45 0 5 54
1968268N26286 1968 96 NA NA FRANCES 1968-09-27 00:00:00 TS 33.5000 -67.7000 45 hurdat_atl main 756 756 O_____________ hurdat_atl AL121968 33.5000 -67.7000 TS 45 0 5 56
1968268N26286 1968 96 NA NA FRANCES 1968-09-27 03:00:00 TS 33.6423 -67.4297 main 778 774 P_____________ AL121968 33.6423 -67.4297 TS 45 0 6 59
1968268N26286 1968 96 NA NA FRANCES 1968-09-27 06:00:00 TS 33.8000 -67.1000 45 hurdat_atl main 796 796 O_____________ hurdat_atl AL121968 33.8000 -67.1000 TS 45 0 7 59
1968268N26286 1968 96 NA NA FRANCES 1968-09-27 09:00:00 TS 34.0151 -66.6729 main 825 825 P_____________ AL121968 34.0151 -66.6729 TS 47 0 8 62
1968268N26286 1968 96 NA NA FRANCES 1968-09-27 12:00:00 TS 34.2000 -66.2000 50 hurdat_atl main 863 863 O_____________ hurdat_atl AL121968 34.2000 -66.2000 TS 50 0 8 72
1968268N26286 1968 96 NA NA FRANCES 1968-09-27 15:00:00 TS 34.2491 -65.8014 main 899 896 P_____________ AL121968 34.2491 -65.8014 TS 50 0 7 82
1968268N26286 1968 96 NA NA FRANCES 1968-09-27 18:00:00 TS 34.3000 -65.3000 50 1001 hurdat_atl main 920 918 O_____________ hurdat_atl AL121968 34.3000 -65.3000 TS 50 1001 0 10 77
1968268N26286 1968 96 NA NA FRANCES 1968-09-27 21:00:00 TS 34.4925 -64.5683 main 929 929 P_____________ AL121968 34.4925 -64.5683 TS 50 0 14 73
1968268N26286 1968 96 NA NA FRANCES 1968-09-28 00:00:00 TS 34.7000 -63.7000 50 hurdat_atl main 952 952 O_____________ hurdat_atl AL121968 34.7000 -63.7000 TS 50 0 15 77
1968268N26286 1968 96 NA NA FRANCES 1968-09-28 03:00:00 TS 34.8216 -62.8370 main 990 986 P_____________ AL121968 34.8216 -62.8370 TS 47 0 15 82
1968268N26286 1968 96 NA NA FRANCES 1968-09-28 06:00:00 TS 34.9000 -61.9000 45 hurdat_atl main 1000 1000 O_____________ hurdat_atl AL121968 34.9000 -61.9000 TS 45 0 16 86
1968268N26286 1968 96 NA NA FRANCES 1968-09-28 09:00:00 TS 34.9423 -60.8641 main 1028 1028 P_____________ AL121968 34.9423 -60.8641 TS 45 0 17 87
1968268N26286 1968 96 NA NA FRANCES 1968-09-28 12:00:00 TS 35.0000 -59.8000 45 hurdat_atl main 1056 1056 O_____________ hurdat_atl AL121968 35.0000 -59.8000 TS 45 0 17 83
1968268N26286 1968 96 NA NA FRANCES 1968-09-28 15:00:00 TS 35.1488 -58.8007 main 1087 1082 P_____________ AL121968 35.1488 -58.8007 TS 42 0 17 80
1968268N26286 1968 96 NA NA FRANCES 1968-09-28 18:00:00 TS 35.3000 -57.8000 40 1003 hurdat_atl main 1115 1115 O_____________ hurdat_atl AL121968 35.3000 -57.8000 TS 40 1003 0 17 83
1968268N26286 1968 96 NA NA FRANCES 1968-09-28 21:00:00 TS 35.3641 -56.7643 main 1149 1149 P_____________ AL121968 35.3641 -56.7643 TS 40 1004 0 17 87
1968268N26286 1968 96 NA NA FRANCES 1968-09-29 00:00:00 TS 35.4000 -55.7000 40 hurdat_atl main 1181 1181 I_____________ hurdat_atl AL121968 35.4000 -55.7000 TS 40 1005 0 17 87
1968268N26286 1968 96 NA NA FRANCES 1968-09-29 03:00:00 TS 35.4629 -54.6529 main 1206 1206 P_____________ AL121968 35.4629 -54.6529 TS 35 1006 0 18 87
1968268N26286 1968 96 NA NA FRANCES 1968-09-29 06:00:00 TS 35.5000 -53.5000 30 1007 hurdat_atl main 1234 1234 O_____________ hurdat_atl AL121968 35.5000 -53.5000 TD 30 1007 -1 21 90
1968268N26286 1968 96 NA NA FRANCES 1968-09-29 09:00:00 TS 35.4653 -52.1293 main 1238 1238 P_____________ AL121968 35.4653 -52.1293 TD 30 -1 23 93
1968268N26286 1968 96 NA NA FRANCES 1968-09-29 12:00:00 ET 35.4000 -50.7000 30 hurdat_atl main 1263 1263 O_____________ hurdat_atl AL121968 35.4000 -50.7000 EX 30 -4 22 94
1968268N26286 1968 96 NA NA FRANCES 1968-09-29 15:00:00 ET 35.3099 -49.4058 main 1296 1296 P_____________ AL121968 35.3099 -49.4058 EX 30 -4 21 93
1968268N26286 1968 96 NA NA FRANCES 1968-09-29 18:00:00 ET 35.3000 -48.1000 30 hurdat_atl main 1327 1327 O_____________ hurdat_atl AL121968 35.3000 -48.1000 EX 30 -4 22 86
1968268N26286 1968 96 NA NA FRANCES 1968-09-29 21:00:00 ET 35.4541 -46.6733 main 1348 1348 P_____________ AL121968 35.4541 -46.6733 EX 30 -4 24 80
1968268N26286 1968 96 NA NA FRANCES 1968-09-30 00:00:00 ET 35.7000 -45.2000 30 hurdat_atl main 1382 1382 O_____________ hurdat_atl AL121968 35.7000 -45.2000 EX 30 -4 24 79
1968268N26286 1968 96 NA NA FRANCES 1968-09-30 03:00:00 ET 35.9335 -43.7417 main 1427 1422 P_____________ AL121968 35.9335 -43.7417 EX 30 -4 24 78
1968268N26286 1968 96 NA NA FRANCES 1968-09-30 06:00:00 ET 36.2000 -42.3000 30 hurdat_atl main 1466 1466 O_____________ hurdat_atl AL121968 36.2000 -42.3000 EX 30 -4 23 77
1968268N26286 1968 96 NA NA FRANCES 1968-09-30 09:00:00 ET 36.4826 -40.9061 main 1513 1513 P_____________ AL121968 36.4826 -40.9061 EX 30 -4 23 75
1968268N26286 1968 96 NA NA FRANCES 1968-09-30 12:00:00 ET 36.8000 -39.5000 30 hurdat_atl main 1568 1568 O_____________ hurdat_atl AL121968 36.8000 -39.5000 EX 30 -4 24 74
1968268N26286 1968 96 NA NA FRANCES 1968-09-30 15:00:00 ET 37.1469 -38.0257 main 1635 1633 P_____________ AL121968 37.1469 -38.0257 EX 30 -4 25 74
1968268N26286 1968 96 NA NA FRANCES 1968-09-30 18:00:00 ET 37.5000 -36.5000 30 hurdat_atl main 1699 O_____________ hurdat_atl AL121968 37.5000 -36.5000 EX 30 -4 25 74

IBTrACS Databaseについて

本データベースは、米国NOAAが公開する1842年以降の世界の熱帯低気圧のベストトラックデータアーカイブInternational Best Track Archive for Climate Stewardship (IBTrACS)を、ウェブで閲覧しやすい形式に変換したものです。

最終更新日:2021-10-08